createdAt,value
2023-04-22T00:02:12.575Z,99433.69
2023-04-22T00:05:14.037Z,99432.67
2023-04-22T00:08:16.382Z,99429.30
2023-04-22T00:11:16.435Z,99425.39
2023-04-22T00:14:16.606Z,99425.60
2023-04-22T00:17:16.404Z,99428.70
2023-04-22T00:20:17.443Z,99426.86
2023-04-22T00:23:17.422Z,99427.05
2023-04-22T00:26:17.424Z,99422.09
2023-04-22T00:29:17.399Z,99426.04
2023-04-22T00:32:17.487Z,99428.63
2023-04-22T00:35:17.430Z,99437.55
2023-04-22T00:38:17.480Z,99444.42
2023-04-22T00:41:17.465Z,99442.59
2023-04-22T00:44:17.480Z,99444.20
2023-04-22T00:47:17.578Z,99442.05
2023-04-22T00:50:18.472Z,99442.52
2023-04-22T00:53:18.532Z,99441.23
2023-04-22T00:56:18.423Z,99439.95
2023-04-22T00:59:18.801Z,99438.50
2023-04-22T01:02:18.621Z,99439.65
2023-04-22T01:05:18.473Z,99438.06
2023-04-22T01:08:18.561Z,99438.11
2023-04-22T01:11:18.524Z,99441.24
2023-04-22T01:14:19.545Z,99445.39
2023-04-22T01:17:20.560Z,99447.48
2023-04-22T01:20:20.541Z,99450.45
2023-04-22T01:23:22.521Z,99447.48
2023-04-22T01:26:22.585Z,99445.04
2023-04-22T01:29:22.776Z,99446.34
2023-04-22T01:32:22.577Z,99447.95
2023-04-22T01:35:22.595Z,99446.45
2023-04-22T01:38:23.607Z,99444.94
2023-04-22T01:41:23.573Z,99446.20
2023-04-22T01:44:25.567Z,99449.71
2023-04-22T01:47:25.558Z,99448.42
2023-04-22T01:50:25.587Z,99450.05
2023-04-22T01:53:25.555Z,99448.77
2023-04-22T01:56:25.635Z,99450.73
2023-04-22T01:59:25.736Z,99449.97
2023-04-22T02:02:25.737Z,99450.95
2023-04-22T02:05:25.709Z,99452.90
2023-04-22T02:08:25.626Z,99453.34
2023-04-22T02:11:27.647Z,99453.92
2023-04-22T02:14:27.642Z,99457.58
2023-04-22T02:17:29.630Z,99459.34
2023-04-22T02:20:29.651Z,99466.19
2023-04-22T02:23:31.638Z,99466.60
2023-04-22T02:26:31.647Z,99465.85
2023-04-22T02:29:31.618Z,99466.17
2023-04-22T02:32:32.719Z,99468.02
2023-04-22T02:35:32.802Z,99463.39
2023-04-22T02:38:32.693Z,99465.55
2023-04-22T02:41:33.646Z,99467.25
2023-04-22T02:44:27.756Z,99466.23
2023-04-22T02:47:27.706Z,99466.76
2023-04-22T02:50:27.678Z,99469.67
2023-04-22T02:53:29.683Z,99467.32
2023-04-22T02:56:29.697Z,99466.96
2023-04-22T02:59:30.682Z,99470.23
2023-04-22T03:02:30.830Z,99466.81
2023-04-22T03:05:37.676Z,99471.45
2023-04-22T03:08:37.721Z,99473.70
2023-04-22T03:11:40.225Z,99475.77
2023-04-22T03:14:40.721Z,99476.71
2023-04-22T03:17:40.778Z,99483.34
2023-04-22T03:20:40.792Z,99486.61
2023-04-22T03:23:40.746Z,99487.61
2023-04-22T03:26:40.778Z,99491.06
2023-04-22T03:29:40.930Z,99488.24
2023-04-22T03:32:41.822Z,99488.00
2023-04-22T03:35:50.750Z,99490.86
2023-04-22T03:38:50.746Z,99494.05
2023-04-22T03:41:52.722Z,99500.01
2023-04-22T03:44:53.789Z,99502.27
2023-04-22T03:47:54.810Z,99504.71
2023-04-22T03:51:01.767Z,99508.82
2023-04-22T03:54:02.879Z,99509.36
2023-04-22T03:57:05.789Z,99514.33
2023-04-22T04:00:06.767Z,99521.83
2023-04-22T04:03:11.003Z,99522.01
2023-04-22T04:06:05.047Z,99521.58
2023-04-22T04:09:04.852Z,99525.77
2023-04-22T04:12:05.787Z,99528.11
2023-04-22T04:15:08.809Z,99531.33
2023-04-22T04:18:08.899Z,99531.25
2023-04-22T04:21:09.857Z,99531.36
2023-04-22T04:24:13.890Z,99531.64
2023-04-22T04:27:14.804Z,99536.89
2023-04-22T04:30:17.859Z,99541.62
2023-04-22T04:33:22.849Z,99539.48
2023-04-22T04:36:22.871Z,99536.53
2023-04-22T04:39:34.861Z,99544.71
2023-04-22T04:42:36.857Z,99545.14
2023-04-22T04:45:34.868Z,99546.23
2023-04-22T04:48:20.938Z,99545.02
2023-04-22T04:51:25.915Z,99549.60
2023-04-22T04:54:25.888Z,99547.30
2023-04-22T04:57:25.940Z,99549.27
2023-04-22T05:00:25.984Z,99548.86
2023-04-22T05:03:26.079Z,99553.30
2023-04-22T05:06:25.924Z,99553.05
2023-04-22T05:09:28.948Z,99553.14
2023-04-22T05:12:28.928Z,99549.87
2023-04-22T05:15:28.975Z,99552.83
2023-04-22T05:18:28.914Z,99558.13
2023-04-22T05:21:31.987Z,99559.04
2023-04-22T05:24:31.896Z,99555.52
2023-04-22T05:27:31.971Z,99548.11
2023-04-22T05:30:32.010Z,99551.23
2023-04-22T05:33:24.969Z,99548.25
2023-04-22T05:36:04.168Z,99550.48
2023-04-22T05:38:50.060Z,99552.98
2023-04-22T05:41:36.039Z,99549.16
2023-04-22T05:44:36.006Z,99548.02
2023-04-22T05:47:36.114Z,99544.95
2023-04-22T05:50:35.994Z,99549.73
2023-04-22T05:53:37.009Z,99551.41
2023-04-22T05:56:38.106Z,99551.02
2023-04-22T05:59:38.319Z,99551.56
2023-04-22T06:02:39.166Z,99552.68
2023-04-22T06:05:39.058Z,99556.42
2023-04-22T06:08:40.027Z,99549.65
2023-04-22T06:11:40.032Z,99553.44
2023-04-22T06:14:40.049Z,99560.52
2023-04-22T06:17:40.070Z,99560.30
2023-04-22T06:20:42.029Z,99561.09
2023-04-22T06:23:43.036Z,99557.92
2023-04-22T06:26:44.074Z,99558.64
2023-04-22T06:29:44.105Z,99559.77
2023-04-22T06:32:44.235Z,99556.95
2023-04-22T06:35:44.067Z,99559.77
2023-04-22T06:38:44.110Z,99565.77
2023-04-22T06:41:53.088Z,99566.30
2023-04-22T06:45:19.129Z,99571.52
2023-04-22T06:48:37.160Z,99577.46
2023-04-22T06:51:55.154Z,99580.25
2023-04-22T06:54:56.185Z,99585.55
2023-04-22T06:58:24.162Z,99591.27
2023-04-22T07:01:25.256Z,99588.83
2023-04-22T07:04:25.256Z,99591.87
2023-04-22T07:07:27.446Z,99596.46
2023-04-22T07:10:27.259Z,99593.89
2023-04-22T07:13:53.200Z,99601.48
2023-04-22T07:16:53.425Z,99597.17
2023-04-22T07:19:53.191Z,99599.34
2023-04-22T07:22:53.375Z,99599.91
2023-04-22T07:25:53.276Z,99603.63
2023-04-22T07:28:54.222Z,99608.99
2023-04-22T07:31:55.328Z,99606.89
2023-04-22T07:34:56.433Z,99609.48
2023-04-22T07:37:56.372Z,99609.42
2023-04-22T07:40:57.220Z,99613.09
2023-04-22T07:43:59.521Z,99614.61
2023-04-22T07:47:00.746Z,99617.58
2023-04-22T07:50:01.478Z,99616.48
2023-04-22T07:53:02.569Z,99622.92
2023-04-22T07:56:03.310Z,99623.92
2023-04-22T07:59:03.264Z,99623.96
2023-04-22T08:02:03.340Z,99623.23
2023-04-22T08:05:03.283Z,99622.98
2023-04-22T08:08:04.271Z,99625.44
2023-04-22T08:11:04.269Z,99627.11
2023-04-22T08:14:04.285Z,99624.93
2023-04-22T08:17:06.343Z,99625.42
2023-04-22T08:20:07.939Z,99624.39
2023-04-22T08:23:08.290Z,99626.34
2023-04-22T08:26:08.635Z,99631.14
2023-04-22T08:29:08.279Z,99628.05
2023-04-22T08:32:08.327Z,99625.55
2023-04-22T08:35:09.312Z,99625.81
2023-04-22T08:38:09.371Z,99626.30
2023-04-22T08:41:09.351Z,99630.58
2023-04-22T08:44:09.340Z,99630.58
2023-04-22T08:47:09.511Z,99628.92
2023-04-22T08:50:09.349Z,99628.66
2023-04-22T08:53:09.410Z,99624.79
2023-04-22T08:56:11.462Z,99626.73
2023-04-22T08:59:14.354Z,99625.05
2023-04-22T09:02:14.527Z,99624.89
2023-04-22T09:05:14.451Z,99625.51
2023-04-22T09:08:14.588Z,99626.57
2023-04-22T09:11:10.478Z,99628.20
2023-04-22T09:13:58.428Z,99630.08
2023-04-22T09:17:01.441Z,99631.34
2023-04-22T09:20:11.376Z,99632.19
2023-04-22T09:23:11.418Z,99632.60
2023-04-22T09:26:11.438Z,99630.48
2023-04-22T09:29:15.434Z,99628.69
2023-04-22T09:32:21.542Z,99628.06
2023-04-22T09:35:21.523Z,99626.81
2023-04-22T09:38:22.458Z,99622.79
2023-04-22T09:41:22.427Z,99623.02
2023-04-22T09:44:17.441Z,99619.80
2023-04-22T09:47:17.511Z,99623.59
2023-04-22T09:50:17.494Z,99630.11
2023-04-22T09:53:20.483Z,99625.85
2023-04-22T09:56:20.443Z,99623.11
2023-04-22T09:59:21.996Z,99617.44
2023-04-22T10:02:22.501Z,99619.20
2023-04-22T10:05:24.194Z,99616.70
2023-04-22T10:08:24.504Z,99622.24
2023-04-22T10:11:24.629Z,99613.94
2023-04-22T10:14:24.548Z,99613.85
2023-04-22T10:17:24.493Z,99609.52
2023-04-22T10:20:25.486Z,99606.79
2023-04-22T10:23:28.532Z,99606.79
2023-04-22T10:26:48.543Z,99607.14
2023-04-22T10:29:49.518Z,99607.52
2023-04-22T10:32:50.760Z,99606.36
2023-04-22T10:35:50.618Z,99606.27
2023-04-22T10:38:51.653Z,99605.42
2023-04-22T10:41:44.662Z,99605.23
2023-04-22T10:44:57.626Z,99604.73
2023-04-22T10:47:58.676Z,99610.21
2023-04-22T10:51:00.640Z,99616.79
2023-04-22T10:54:00.582Z,99621.31
2023-04-22T10:57:18.588Z,99629.27
2023-04-22T11:00:41.759Z,99615.05
2023-04-22T11:03:47.667Z,99622.48
2023-04-22T11:06:47.701Z,99623.17
2023-04-22T11:09:47.620Z,99628.52
2023-04-22T11:12:50.598Z,99634.98
2023-04-22T11:15:54.652Z,99637.39
2023-04-22T11:18:54.607Z,99639.38
2023-04-22T11:21:56.692Z,99641.77
2023-04-22T11:25:06.677Z,99642.70
2023-04-22T11:28:06.640Z,99644.98
2023-04-22T11:31:06.663Z,99648.70
2023-04-22T11:34:06.623Z,99646.45
2023-04-22T11:37:06.696Z,99649.69
2023-04-22T11:43:09.700Z,99653.61
2023-04-22T11:46:10.704Z,99653.57
2023-04-22T11:49:28.720Z,99660.02
2023-04-22T11:52:28.724Z,99655.35
2023-04-22T11:55:21.681Z,99650.01
2023-04-22T11:58:02.899Z,99654.30
2023-04-22T12:00:51.685Z,99649.43
2023-04-22T12:03:38.902Z,99646.52
2023-04-22T12:06:38.783Z,99644.89
2023-04-22T12:09:39.948Z,99646.89
2023-04-22T12:12:33.784Z,99651.39
2023-04-22T12:15:21.699Z,99647.24
2023-04-22T12:18:21.735Z,99646.45
2023-04-22T12:21:21.817Z,99643.70
2023-04-22T12:24:21.730Z,99639.38
2023-04-22T12:27:21.744Z,99638.08
2023-04-22T12:30:21.762Z,99629.25
2023-04-22T12:33:21.742Z,99632.66
2023-04-22T12:36:22.937Z,99626.29
2023-04-22T12:39:23.806Z,99629.70
2023-04-22T12:42:23.780Z,99630.37
2023-04-22T12:45:23.768Z,99632.59
2023-04-22T12:48:16.793Z,99629.56
2023-04-22T12:50:56.727Z,99635.84
2023-04-22T12:53:43.857Z,99631.07
2023-04-22T12:56:24.167Z,99623.23
2023-04-22T12:59:10.230Z,99634.70
2023-04-22T13:01:58.066Z,99626.22
2023-04-22T13:04:51.833Z,99632.21
2023-04-22T13:07:38.849Z,99633.36
2023-04-22T13:10:38.829Z,99633.42
2023-04-22T13:13:47.809Z,99633.98
2023-04-22T13:16:47.846Z,99631.14
2023-04-22T13:19:47.829Z,99629.83
2023-04-22T13:22:47.905Z,99625.29
2023-04-22T13:25:48.865Z,99622.36
2023-04-22T13:28:50.862Z,99627.84
2023-04-22T13:31:51.877Z,99625.66
2023-04-22T13:34:45.888Z,99628.36
2023-04-22T13:37:25.965Z,99631.05
2023-04-22T13:40:11.855Z,99630.34
2023-04-22T13:43:11.895Z,99634.03
2023-04-22T13:46:12.004Z,99638.67
2023-04-22T13:49:11.922Z,99635.61
2023-04-22T13:52:11.947Z,99638.35
2023-04-22T13:55:12.115Z,99638.76
2023-04-22T13:58:11.907Z,99637.71
2023-04-22T14:01:11.980Z,99637.04
2023-04-22T14:04:05.062Z,99633.25
2023-04-22T14:07:04.925Z,99631.48
2023-04-22T14:10:04.904Z,99637.09
2023-04-22T14:13:04.977Z,99637.64
2023-04-22T14:16:05.060Z,99633.44
2023-04-22T14:19:04.937Z,99634.95
2023-04-22T14:22:05.936Z,99637.27
2023-04-22T14:25:05.956Z,99637.30
2023-04-22T14:27:59.090Z,99643.95
2023-04-22T14:30:59.010Z,99641.64
2023-04-22T14:33:58.957Z,99644.94
2023-04-22T14:36:59.186Z,99647.20
2023-04-22T14:40:00.178Z,99650.81
2023-04-22T14:43:00.939Z,99647.73
2023-04-22T14:46:01.106Z,99647.09
2023-04-22T14:49:00.980Z,99646.79
2023-04-22T14:52:01.034Z,99646.55
2023-04-22T14:55:08.805Z,99652.84
2023-04-22T14:58:16.026Z,99650.70
2023-04-22T15:01:17.093Z,99653.16
2023-04-22T15:04:19.100Z,99657.77
2023-04-22T15:07:19.030Z,99659.25
2023-04-22T15:10:20.140Z,99663.04
2023-04-22T15:13:20.069Z,99665.13
2023-04-22T15:16:20.213Z,99667.56
2023-04-22T15:19:20.108Z,99666.07
2023-04-22T15:22:20.175Z,99668.83
2023-04-22T15:25:20.036Z,99664.42
2023-04-22T15:28:20.120Z,99669.02
2023-04-22T15:31:22.088Z,99670.34
2023-04-22T15:34:22.097Z,99670.42
2023-04-22T15:37:23.458Z,99669.77
2023-04-22T15:40:27.412Z,99671.23
2023-04-22T15:43:27.117Z,99673.52
2023-04-22T15:46:27.244Z,99670.00
2023-04-22T15:49:27.127Z,99669.29
2023-04-22T15:52:27.130Z,99675.41
2023-04-22T15:55:27.090Z,99677.30
2023-04-22T15:58:28.989Z,99682.89
2023-04-22T16:01:31.149Z,99679.10
2023-04-22T16:04:34.301Z,99679.56
2023-04-22T16:07:34.145Z,99690.14
2023-04-22T16:10:34.171Z,99688.50
2023-04-22T16:13:34.142Z,99689.11
2023-04-22T16:16:35.201Z,99693.39
2023-04-22T16:19:35.141Z,99696.77
2023-04-22T16:22:35.236Z,99704.83
2023-04-22T16:25:35.332Z,99708.03
2023-04-22T16:28:37.185Z,99705.48
2023-04-22T16:31:37.247Z,99714.58
2023-04-22T16:34:37.171Z,99713.79
2023-04-22T16:37:37.184Z,99718.86
2023-04-22T16:40:37.203Z,99720.45
2023-04-22T16:43:39.082Z,99726.04
2023-04-22T16:46:40.351Z,99728.67
2023-04-22T16:49:40.654Z,99726.95
2023-04-22T16:52:44.240Z,99729.41
2023-04-22T16:55:44.239Z,99728.73
2023-04-22T16:58:44.193Z,99730.14
2023-04-22T17:01:47.308Z,99735.71
2023-04-22T17:04:47.228Z,99741.05
2023-04-22T17:07:47.359Z,99744.01
2023-04-22T17:10:44.362Z,99743.15
2023-04-22T17:13:45.526Z,99747.48
2023-04-22T17:16:45.273Z,99748.68
2023-04-22T17:19:45.293Z,99758.21
2023-04-22T17:22:47.278Z,99759.77
2023-04-22T17:25:48.277Z,99757.51
2023-04-22T17:28:48.417Z,99761.66
2023-04-22T17:31:48.375Z,99771.34
2023-04-22T17:34:49.290Z,99775.85
2023-04-22T17:37:50.414Z,99778.09
2023-04-22T17:40:51.272Z,99778.77
2023-04-22T17:43:51.330Z,99780.65
2023-04-22T17:46:52.424Z,99781.48
2023-04-22T17:49:52.378Z,99790.30
2023-04-22T17:52:55.369Z,99793.05
2023-04-22T17:55:56.464Z,99797.33
2023-04-22T17:58:57.342Z,99800.75
2023-04-22T18:01:59.632Z,99805.40
2023-04-22T18:04:55.573Z,99809.71
2023-04-22T18:07:55.365Z,99811.77
2023-04-22T18:10:55.818Z,99813.15
2023-04-22T18:13:57.370Z,99817.64
2023-04-22T18:16:58.419Z,99815.39
2023-04-22T18:20:14.003Z,99821.77
2023-04-22T18:23:19.541Z,99822.27
2023-04-22T18:26:19.356Z,99821.05
2023-04-22T18:29:19.405Z,99824.33
2023-04-22T18:32:19.470Z,99825.88
2023-04-22T18:35:21.617Z,99828.46
2023-04-22T18:38:21.393Z,99828.27
2023-04-22T18:41:21.556Z,99828.11
2023-04-22T18:44:21.437Z,99832.08
2023-04-22T18:47:22.678Z,99828.77
2023-04-22T18:50:22.493Z,99831.86
2023-04-22T18:53:22.451Z,99836.35
2023-04-22T18:56:22.702Z,99833.05
2023-04-22T18:59:22.520Z,99839.27
2023-04-22T19:02:23.605Z,99842.54
2023-04-22T19:05:23.445Z,99842.52
2023-04-22T19:08:23.551Z,99846.83
2023-04-22T19:11:23.484Z,99844.55
2023-04-22T19:14:24.487Z,99840.73
2023-04-22T19:17:18.529Z,99840.91
2023-04-22T19:20:04.597Z,99846.06
2023-04-22T19:23:04.555Z,99855.89
2023-04-22T19:26:04.587Z,99854.67
2023-04-22T19:29:04.486Z,99853.80
2023-04-22T19:32:04.556Z,99857.59
2023-04-22T19:35:06.501Z,99858.77
2023-04-22T19:38:08.687Z,99863.02
2023-04-22T19:41:08.536Z,99863.50
2023-04-22T19:44:08.547Z,99866.92
2023-04-22T19:47:09.503Z,99872.42
2023-04-22T19:50:09.516Z,99875.33
2023-04-22T19:53:04.808Z,99876.67
2023-04-22T19:56:04.882Z,99876.14
2023-04-22T19:59:04.567Z,99880.61
2023-04-22T20:02:08.775Z,99883.16
2023-04-22T20:05:11.567Z,99885.90
2023-04-22T20:08:11.546Z,99883.63
2023-04-22T20:11:11.571Z,99885.16
2023-04-22T20:14:13.560Z,99888.23
2023-04-22T20:17:13.562Z,99884.58
2023-04-22T20:20:14.614Z,99890.63
2023-04-22T20:23:19.945Z,99889.38
2023-04-22T20:26:19.655Z,99885.67
2023-04-22T20:29:19.623Z,99887.53
2023-04-22T20:32:19.661Z,99884.56
2023-04-22T20:35:20.729Z,99883.82
2023-04-22T20:38:21.672Z,99884.13
2023-04-22T20:41:21.659Z,99888.05
2023-04-22T20:44:24.705Z,99888.20
2023-04-22T20:47:25.645Z,99890.77
2023-04-22T20:50:28.814Z,99889.17
2023-04-22T20:53:30.622Z,99888.96
2023-04-22T20:56:31.745Z,99890.48
2023-04-22T20:59:31.697Z,99888.38
2023-04-22T21:02:32.872Z,99889.05
2023-04-22T21:05:26.976Z,99890.05
2023-04-22T21:08:32.642Z,99889.33
2023-04-22T21:11:32.719Z,99886.17
2023-04-22T21:14:32.697Z,99889.08
2023-04-22T21:17:32.806Z,99889.22
2023-04-22T21:20:33.741Z,99892.98
2023-04-22T21:23:34.738Z,99889.30
2023-04-22T21:26:34.679Z,99892.57
2023-04-22T21:29:34.809Z,99893.23
2023-04-22T21:32:35.731Z,99892.17
2023-04-22T21:35:35.767Z,99896.98
2023-04-22T21:38:35.698Z,99895.27
2023-04-22T21:41:35.709Z,99894.70
2023-04-22T21:44:35.755Z,99892.94
2023-04-22T21:47:35.892Z,99900.14
2023-04-22T21:50:36.902Z,99894.91
2023-04-22T21:53:36.728Z,99900.59
2023-04-22T21:56:39.802Z,99900.70
2023-04-22T21:59:39.732Z,99902.04
2023-04-22T22:02:41.807Z,99908.21
2023-04-22T22:05:41.775Z,99904.38
2023-04-22T22:08:41.867Z,99906.23
2023-04-22T22:11:43.895Z,99908.59
2023-04-22T22:14:44.793Z,99908.02
2023-04-22T22:17:46.041Z,99908.83
2023-04-22T22:20:45.833Z,99907.05
2023-04-22T22:23:45.908Z,99907.33
2023-04-22T22:26:46.850Z,99910.70
2023-04-22T22:29:46.869Z,99907.18
2023-04-22T22:32:49.338Z,99911.09
2023-04-22T22:35:49.807Z,99911.55
2023-04-22T22:38:50.871Z,99911.66
2023-04-22T22:41:50.815Z,99911.63
2023-04-22T22:44:53.858Z,99910.54
2023-04-22T22:47:57.940Z,99908.91
2023-04-22T22:50:57.839Z,99909.52
2023-04-22T22:53:57.944Z,99915.34
2023-04-22T22:56:57.983Z,99914.77
2023-04-22T23:00:00.886Z,99913.89
2023-04-22T23:03:01.999Z,99912.30
2023-04-22T23:06:02.882Z,99910.39
2023-04-22T23:09:02.945Z,99912.75
2023-04-22T23:12:02.886Z,99914.29
2023-04-22T23:15:02.988Z,99916.86
2023-04-22T23:17:55.934Z,99913.71
2023-04-22T23:20:55.940Z,99917.30
2023-04-22T23:23:55.915Z,99919.66
2023-04-22T23:26:55.954Z,99922.73
2023-04-22T23:29:56.956Z,99919.59
2023-04-22T23:32:57.988Z,99919.55
2023-04-22T23:35:57.929Z,99920.20
2023-04-22T23:38:58.172Z,99918.63
2023-04-22T23:41:58.041Z,99919.61
2023-04-22T23:44:57.990Z,99918.35
2023-04-22T23:47:58.118Z,99921.62
2023-04-22T23:50:58.002Z,99923.84
2023-04-22T23:53:58.023Z,99922.80
2023-04-22T23:56:58.093Z,99917.61
2023-04-22T23:59:58.013Z,99923.09
